sensor_id;sensor_type;location;lat;lon;timestamp;pressure;altitude;pressure_sealevel;temperature;humidity
77023;BME280;65952;51.440;-2.054;2023-01-28T00:00:56;101937.13;;;-0.09;79.98
77023;BME280;65952;51.440;-2.054;2023-01-28T00:03:21;101938.81;;;-0.08;80.30
77023;BME280;65952;51.440;-2.054;2023-01-28T00:05:47;101935.28;;;-0.07;80.30
77023;BME280;65952;51.440;-2.054;2023-01-28T00:08:12;101936.19;;;-0.08;80.40
77023;BME280;65952;51.440;-2.054;2023-01-28T00:10:39;101939.69;;;-0.07;80.64
77023;BME280;65952;51.440;-2.054;2023-01-28T00:13:10;101938.78;;;-0.06;80.49
77023;BME280;65952;51.440;-2.054;2023-01-28T00:15:37;101948.31;;;-0.02;80.67
77023;BME280;65952;51.440;-2.054;2023-01-28T00:18:02;101938.56;;;0.00;80.51
77023;BME280;65952;51.440;-2.054;2023-01-28T00:20:28;101944.56;;;0.04;80.45
77023;BME280;65952;51.440;-2.054;2023-01-28T00:22:53;101947.94;;;0.07;80.55
77023;BME280;65952;51.440;-2.054;2023-01-28T00:25:19;101949.56;;;0.11;80.36
77023;BME280;65952;51.440;-2.054;2023-01-28T00:27:44;101952.00;;;0.16;80.32
77023;BME280;65952;51.440;-2.054;2023-01-28T00:30:10;101950.09;;;0.20;80.31
77023;BME280;65952;51.440;-2.054;2023-01-28T00:32:35;101958.69;;;0.25;80.12
77023;BME280;65952;51.440;-2.054;2023-01-28T00:35:02;101958.59;;;0.28;80.10
77023;BME280;65952;51.440;-2.054;2023-01-28T00:37:27;101957.53;;;0.32;80.06
77023;BME280;65952;51.440;-2.054;2023-01-28T00:39:53;101958.28;;;0.36;79.88
77023;BME280;65952;51.440;-2.054;2023-01-28T00:42:18;101954.59;;;0.40;80.00
77023;BME280;65952;51.440;-2.054;2023-01-28T00:44:44;101957.00;;;0.46;79.64
77023;BME280;65952;51.440;-2.054;2023-01-28T00:47:09;101948.06;;;0.48;79.72
77023;BME280;65952;51.440;-2.054;2023-01-28T00:49:35;101950.63;;;0.52;79.40
77023;BME280;65952;51.440;-2.054;2023-01-28T00:52:00;101953.13;;;0.55;79.19
77023;BME280;65952;51.440;-2.054;2023-01-28T00:54:26;101946.00;;;0.57;78.91
77023;BME280;65952;51.440;-2.054;2023-01-28T00:56:52;101952.06;;;0.59;78.78
77023;BME280;65952;51.440;-2.054;2023-01-28T00:59:20;101952.78;;;0.62;78.51
77023;BME280;65952;51.440;-2.054;2023-01-28T01:01:45;101952.69;;;0.66;78.35
77023;BME280;65952;51.440;-2.054;2023-01-28T01:04:10;101948.19;;;0.68;78.13
77023;BME280;65952;51.440;-2.054;2023-01-28T01:06:38;101946.41;;;0.68;78.04
77023;BME280;65952;51.440;-2.054;2023-01-28T01:09:06;101943.69;;;0.70;78.02
77023;BME280;65952;51.440;-2.054;2023-01-28T01:11:32;101953.28;;;0.72;77.96
77023;BME280;65952;51.440;-2.054;2023-01-28T01:13:58;101947.16;;;0.72;78.31
77023;BME280;65952;51.440;-2.054;2023-01-28T01:16:27;101947.94;;;0.74;78.02
77023;BME280;65952;51.440;-2.054;2023-01-28T01:18:54;101944.38;;;0.75;77.71
77023;BME280;65952;51.440;-2.054;2023-01-28T01:21:23;101938.16;;;0.76;77.72
77023;BME280;65952;51.440;-2.054;2023-01-28T01:23:50;101931.94;;;0.77;77.59
77023;BME280;65952;51.440;-2.054;2023-01-28T01:26:16;101923.22;;;0.75;77.68
77023;BME280;65952;51.440;-2.054;2023-01-28T01:28:42;101926.69;;;0.75;77.67
77023;BME280;65952;51.440;-2.054;2023-01-28T01:31:11;101927.59;;;0.76;77.65
77023;BME280;65952;51.440;-2.054;2023-01-28T01:33:38;101919.66;;;0.76;77.55
77023;BME280;65952;51.440;-2.054;2023-01-28T01:36:04;101925.84;;;0.75;77.54
77023;BME280;65952;51.440;-2.054;2023-01-28T01:38:30;101919.66;;;0.76;77.52
77023;BME280;65952;51.440;-2.054;2023-01-28T01:41:00;101912.50;;;0.78;77.28
77023;BME280;65952;51.440;-2.054;2023-01-28T01:43:45;101915.13;;;0.78;77.21
77023;BME280;65952;51.440;-2.054;2023-01-28T01:46:12;101911.66;;;0.77;77.17
77023;BME280;65952;51.440;-2.054;2023-01-28T01:48:38;101917.00;;;0.76;77.49
77023;BME280;65952;51.440;-2.054;2023-01-28T01:51:09;101908.19;;;0.75;77.56
77023;BME280;65952;51.440;-2.054;2023-01-28T01:53:42;101912.72;;;0.73;77.57
77023;BME280;65952;51.440;-2.054;2023-01-28T01:56:10;101918.06;;;0.72;77.72
77023;BME280;65952;51.440;-2.054;2023-01-28T01:58:38;101927.75;;;0.71;77.86
77023;BME280;65952;51.440;-2.054;2023-01-28T02:01:05;101919.00;;;0.71;77.80
77023;BME280;65952;51.440;-2.054;2023-01-28T02:03:40;101937.50;;;0.71;77.80
77023;BME280;65952;51.440;-2.054;2023-01-28T02:06:08;101935.44;;;0.77;77.19
77023;BME280;65952;51.440;-2.054;2023-01-28T02:08:33;101931.88;;;0.78;76.63
77023;BME280;65952;51.440;-2.054;2023-01-28T02:11:04;101930.09;;;0.79;76.62
77023;BME280;65952;51.440;-2.054;2023-01-28T02:13:38;101930.81;;;0.83;76.55
77023;BME280;65952;51.440;-2.054;2023-01-28T02:16:06;101936.91;;;0.85;76.27
77023;BME280;65952;51.440;-2.054;2023-01-28T02:18:32;101933.38;;;0.84;76.41
77023;BME280;65952;51.440;-2.054;2023-01-28T02:34:39;101931.56;;;0.86;75.60
77023;BME280;65952;51.440;-2.054;2023-01-28T02:37:38;101941.97;;;0.89;75.20
77023;BME280;65952;51.440;-2.054;2023-01-28T02:40:36;101940.16;;;0.91;75.38
77023;BME280;65952;51.440;-2.054;2023-01-28T02:43:38;101955.03;;;0.94;75.42
77023;BME280;65952;51.440;-2.054;2023-01-28T02:49:42;101954.91;;;0.97;75.43
77023;BME280;65952;51.440;-2.054;2023-01-28T03:01:05;101969.31;;;1.10;74.30
77023;BME280;65952;51.440;-2.054;2023-01-28T03:06:19;101966.47;;;1.15;73.88
77023;BME280;65952;51.440;-2.054;2023-01-28T03:08:52;101973.56;;;1.15;74.18
77023;BME280;65952;51.440;-2.054;2023-01-28T03:11:40;101978.03;;;1.12;74.36
77023;BME280;65952;51.440;-2.054;2023-01-28T03:14:27;101965.66;;;1.13;73.96
77023;BME280;65952;51.440;-2.054;2023-01-28T03:17:17;101974.41;;;1.15;74.21
77023;BME280;65952;51.440;-2.054;2023-01-28T03:20:04;101980.63;;;1.14;74.40
77023;BME280;65952;51.440;-2.054;2023-01-28T03:22:50;101978.84;;;1.15;74.51
77023;BME280;65952;51.440;-2.054;2023-01-28T03:25:39;101985.78;;;1.17;74.31
77023;BME280;65952;51.440;-2.054;2023-01-28T03:28:27;101983.84;;;1.21;73.41
77023;BME280;65952;51.440;-2.054;2023-01-28T03:31:14;101974.94;;;1.23;73.49
77023;BME280;65952;51.440;-2.054;2023-01-28T03:34:00;101967.00;;;1.23;73.28
77023;BME280;65952;51.440;-2.054;2023-01-28T03:36:46;101974.00;;;1.24;73.30
77023;BME280;65952;51.440;-2.054;2023-01-28T03:39:17;101965.13;;;1.25;73.51
77023;BME280;65952;51.440;-2.054;2023-01-28T03:41:54;101953.63;;;1.26;73.21
77023;BME280;65952;51.440;-2.054;2023-01-28T03:44:19;101946.53;;;1.27;73.42
77023;BME280;65952;51.440;-2.054;2023-01-28T03:47:03;101940.34;;;1.28;73.40
77023;BME280;65952;51.440;-2.054;2023-01-28T03:49:31;101942.06;;;1.29;73.35
77023;BME280;65952;51.440;-2.054;2023-01-28T03:51:56;101941.00;;;1.33;73.41
77023;BME280;65952;51.440;-2.054;2023-01-28T03:54:22;101933.13;;;1.32;73.41
77023;BME280;65952;51.440;-2.054;2023-01-28T03:56:47;101937.50;;;1.33;73.43
77023;BME280;65952;51.440;-2.054;2023-01-28T03:59:13;101938.56;;;1.28;73.67
77023;BME280;65952;51.440;-2.054;2023-01-28T04:01:39;101935.03;;;1.28;73.62
77023;BME280;65952;51.440;-2.054;2023-01-28T04:04:04;101936.03;;;1.25;73.87
77023;BME280;65952;51.440;-2.054;2023-01-28T04:06:30;101923.72;;;1.24;74.10
77023;BME280;65952;51.440;-2.054;2023-01-28T04:08:56;101927.44;;;1.20;74.46
77023;BME280;65952;51.440;-2.054;2023-01-28T04:11:24;101933.81;;;1.16;74.46
77023;BME280;65952;51.440;-2.054;2023-01-28T04:13:50;101938.38;;;1.12;74.81
77023;BME280;65952;51.440;-2.054;2023-01-28T04:16:17;101934.06;;;1.10;75.07
77023;BME280;65952;51.440;-2.054;2023-01-28T04:18:43;101936.06;;;1.05;75.21
77023;BME280;65952;51.440;-2.054;2023-01-28T04:21:09;101930.78;;;1.05;75.44
77023;BME280;65952;51.440;-2.054;2023-01-28T04:23:35;101934.41;;;1.02;75.43
77023;BME280;65952;51.440;-2.054;2023-01-28T04:26:00;101928.25;;;1.02;75.21
77023;BME280;65952;51.440;-2.054;2023-01-28T04:28:36;101921.22;;;1.01;75.23
77023;BME280;65952;51.440;-2.054;2023-01-28T04:31:06;101916.81;;;1.01;75.29
77023;BME280;65952;51.440;-2.054;2023-01-28T04:33:31;101916.00;;;0.99;75.29
77023;BME280;65952;51.440;-2.054;2023-01-28T04:35:57;101928.47;;;0.97;75.73
77023;BME280;65952;51.440;-2.054;2023-01-28T04:38:22;101921.56;;;0.93;75.69
77023;BME280;65952;51.440;-2.054;2023-01-28T04:40:49;101922.56;;;0.90;75.71
77023;BME280;65952;51.440;-2.054;2023-01-28T04:43:14;101926.19;;;0.88;75.82
77023;BME280;65952;51.440;-2.054;2023-01-28T04:45:40;101926.19;;;0.88;75.66
77023;BME280;65952;51.440;-2.054;2023-01-28T04:48:05;101933.19;;;0.89;75.52
77023;BME280;65952;51.440;-2.054;2023-01-28T04:50:32;101935.84;;;0.89;75.62
77023;BME280;65952;51.440;-2.054;2023-01-28T04:52:57;101944.63;;;0.89;75.59
77023;BME280;65952;51.440;-2.054;2023-01-28T04:55:23;101939.22;;;0.92;75.31
77023;BME280;65952;51.440;-2.054;2023-01-28T04:57:48;101940.88;;;0.95;74.88
77023;BME280;65952;51.440;-2.054;2023-01-28T05:00:14;101948.41;;;1.04;74.48
77023;BME280;65952;51.440;-2.054;2023-01-28T05:02:39;101943.84;;;1.08;74.20
77023;BME280;65952;51.440;-2.054;2023-01-28T05:05:05;101954.31;;;1.11;73.91
77023;BME280;65952;51.440;-2.054;2023-01-28T05:07:35;101938.28;;;1.14;73.84
77023;BME280;65952;51.440;-2.054;2023-01-28T05:10:01;101948.81;;;1.16;73.80
77023;BME280;65952;51.440;-2.054;2023-01-28T05:12:27;101945.25;;;1.17;73.56
77023;BME280;65952;51.440;-2.054;2023-01-28T05:14:52;101947.53;;;1.24;72.87
77023;BME280;65952;51.440;-2.054;2023-01-28T05:17:17;101951.00;;;1.26;73.00
77023;BME280;65952;51.440;-2.054;2023-01-28T05:19:43;101951.84;;;1.27;73.12
77023;BME280;65952;51.440;-2.054;2023-01-28T05:22:10;101947.53;;;1.24;73.18
77023;BME280;65952;51.440;-2.054;2023-01-28T05:24:35;101939.75;;;1.21;73.60
77023;BME280;65952;51.440;-2.054;2023-01-28T05:27:01;101945.13;;;1.20;73.60
77023;BME280;65952;51.440;-2.054;2023-01-28T05:29:26;101940.75;;;1.19;73.71
77023;BME280;65952;51.440;-2.054;2023-01-28T05:31:52;101954.91;;;1.18;73.96
77023;BME280;65952;51.440;-2.054;2023-01-28T05:34:17;101955.88;;;1.15;73.94
77023;BME280;65952;51.440;-2.054;2023-01-28T05:36:42;101951.53;;;1.14;74.22
77023;BME280;65952;51.440;-2.054;2023-01-28T05:39:08;101957.63;;;1.16;74.28
77023;BME280;65952;51.440;-2.054;2023-01-28T05:41:33;101959.38;;;1.16;74.28
77023;BME280;65952;51.440;-2.054;2023-01-28T05:43:59;101962.91;;;1.16;74.16
77023;BME280;65952;51.440;-2.054;2023-01-28T05:46:28;101955.75;;;1.18;74.31
77023;BME280;65952;51.440;-2.054;2023-01-28T05:48:53;101954.81;;;1.19;74.04
77023;BME280;65952;51.440;-2.054;2023-01-28T05:51:19;101954.72;;;1.22;74.04
77023;BME280;65952;51.440;-2.054;2023-01-28T05:53:44;101959.06;;;1.23;74.09
77023;BME280;65952;51.440;-2.054;2023-01-28T05:56:10;101954.63;;;1.24;74.06
77023;BME280;65952;51.440;-2.054;2023-01-28T05:58:35;101947.53;;;1.24;74.03
77023;BME280;65952;51.440;-2.054;2023-01-28T06:01:01;101954.56;;;1.25;74.23
77023;BME280;65952;51.440;-2.054;2023-01-28T06:03:26;101955.88;;;1.36;73.81
77023;BME280;65952;51.440;-2.054;2023-01-28T06:05:52;101951.44;;;1.36;73.50
77023;BME280;65952;51.440;-2.054;2023-01-28T06:08:17;101948.88;;;1.35;73.60
77023;BME280;65952;51.440;-2.054;2023-01-28T06:10:42;101958.59;;;1.34;73.15
77023;BME280;65952;51.440;-2.054;2023-01-28T06:13:08;101964.75;;;1.35;73.63
77023;BME280;65952;51.440;-2.054;2023-01-28T06:15:33;101968.25;;;1.35;73.63
77023;BME280;65952;51.440;-2.054;2023-01-28T06:17:59;101962.16;;;1.33;73.84
77023;BME280;65952;51.440;-2.054;2023-01-28T06:20:25;101964.88;;;1.32;73.88
77023;BME280;65952;51.440;-2.054;2023-01-28T06:22:51;101950.00;;;1.29;74.24
77023;BME280;65952;51.440;-2.054;2023-01-28T06:25:17;101959.78;;;1.27;74.79
77023;BME280;65952;51.440;-2.054;2023-01-28T06:27:42;101957.28;;;1.24;74.98
77023;BME280;65952;51.440;-2.054;2023-01-28T06:30:08;101967.00;;;1.23;75.05
77023;BME280;65952;51.440;-2.054;2023-01-28T06:32:34;101956.44;;;1.23;74.94
77023;BME280;65952;51.440;-2.054;2023-01-28T06:34:59;101947.53;;;1.24;74.85
77023;BME280;65952;51.440;-2.054;2023-01-28T06:37:24;101957.28;;;1.24;74.81
77023;BME280;65952;51.440;-2.054;2023-01-28T06:39:50;101958.13;;;1.24;74.99
77023;BME280;65952;51.440;-2.054;2023-01-28T06:42:16;101953.72;;;1.25;74.95
77023;BME280;65952;51.440;-2.054;2023-01-28T06:44:41;101957.13;;;1.27;74.90
77023;BME280;65952;51.440;-2.054;2023-01-28T06:47:08;101960.72;;;1.26;75.46
77023;BME280;65952;51.440;-2.054;2023-01-28T06:49:36;101970.69;;;1.19;76.04
77023;BME280;65952;51.440;-2.054;2023-01-28T06:52:01;101964.00;;;1.10;76.21
77023;BME280;65952;51.440;-2.054;2023-01-28T06:54:29;101959.94;;;1.03;76.74
77023;BME280;65952;51.440;-2.054;2023-01-28T06:56:54;101951.28;;;1.00;77.00
77023;BME280;65952;51.440;-2.054;2023-01-28T06:59:20;101960.19;;;0.97;77.32
77023;BME280;65952;51.440;-2.054;2023-01-28T07:01:45;101956.81;;;0.93;77.47
77023;BME280;65952;51.440;-2.054;2023-01-28T07:04:11;101957.66;;;0.94;77.42
77023;BME280;65952;51.440;-2.054;2023-01-28T07:06:36;101963.50;;;1.02;77.13
77023;BME280;65952;51.440;-2.054;2023-01-28T07:09:01;101959.06;;;1.03;76.78
77023;BME280;65952;51.440;-2.054;2023-01-28T07:11:27;101972.09;;;1.07;76.83
77023;BME280;65952;51.440;-2.054;2023-01-28T07:13:52;101971.94;;;1.10;76.40
77023;BME280;65952;51.440;-2.054;2023-01-28T07:16:18;101976.41;;;1.10;76.35
77023;BME280;65952;51.440;-2.054;2023-01-28T07:18:43;101980.81;;;1.09;76.54
77023;BME280;65952;51.440;-2.054;2023-01-28T07:21:08;101975.47;;;1.11;76.85
77023;BME280;65952;51.440;-2.054;2023-01-28T07:23:34;101964.81;;;1.12;76.56
77023;BME280;65952;51.440;-2.054;2023-01-28T07:26:02;101959.38;;;1.16;76.33
77023;BME280;65952;51.440;-2.054;2023-01-28T07:28:28;101960.31;;;1.35;74.97
77023;BME280;65952;51.440;-2.054;2023-01-28T07:30:53;101950.31;;;1.42;74.36
77023;BME280;65952;51.440;-2.054;2023-01-28T07:33:19;101955.75;;;1.39;74.63
77023;BME280;65952;51.440;-2.054;2023-01-28T07:35:49;101961.03;;;1.39;74.57
77023;BME280;65952;51.440;-2.054;2023-01-28T07:38:15;101955.75;;;1.39;73.81
77023;BME280;65952;51.440;-2.054;2023-01-28T07:40:40;101951.09;;;1.44;73.54
77023;BME280;65952;51.440;-2.054;2023-01-28T07:43:09;101964.19;;;1.47;73.66
77023;BME280;65952;51.440;-2.054;2023-01-28T07:45:35;101956.22;;;1.49;73.56
77023;BME280;65952;51.440;-2.054;2023-01-28T07:48:09;101951.75;;;1.49;73.39
77023;BME280;65952;51.440;-2.054;2023-01-28T07:50:36;101950.84;;;1.50;73.27
77023;BME280;65952;51.440;-2.054;2023-01-28T07:53:07;101960.34;;;1.54;72.96
77023;BME280;65952;51.440;-2.054;2023-01-28T07:55:33;101959.34;;;1.57;72.75
77023;BME280;65952;51.440;-2.054;2023-01-28T07:58:03;101964.53;;;1.60;72.82
77023;BME280;65952;51.440;-2.054;2023-01-28T08:00:31;101963.53;;;1.62;72.81
77023;BME280;65952;51.440;-2.054;2023-01-28T08:02:59;101971.22;;;1.67;72.67
77023;BME280;65952;51.440;-2.054;2023-01-28T08:05:25;101981.78;;;1.69;73.96
77023;BME280;65952;51.440;-2.054;2023-01-28T08:07:54;101991.56;;;1.67;74.80
77023;BME280;65952;51.440;-2.054;2023-01-28T08:10:20;101991.13;;;1.57;75.80
77023;BME280;65952;51.440;-2.054;2023-01-28T08:12:56;101998.59;;;1.47;75.81
77023;BME280;65952;51.440;-2.054;2023-01-28T08:15:23;102001.59;;;1.39;75.99
77023;BME280;65952;51.440;-2.054;2023-01-28T08:17:49;102001.91;;;1.32;76.36
77023;BME280;65952;51.440;-2.054;2023-01-28T08:20:18;102002.19;;;1.25;76.49
77023;BME280;65952;51.440;-2.054;2023-01-28T08:22:43;102003.31;;;1.20;77.48
77023;BME280;65952;51.440;-2.054;2023-01-28T08:25:09;102013.16;;;1.16;77.23
77023;BME280;65952;51.440;-2.054;2023-01-28T08:27:34;102016.72;;;1.15;77.35
77023;BME280;65952;51.440;-2.054;2023-01-28T08:30:00;102014.75;;;1.20;76.73
77023;BME280;65952;51.440;-2.054;2023-01-28T08:32:25;102014.63;;;1.23;76.03
77023;BME280;65952;51.440;-2.054;2023-01-28T08:34:50;102014.16;;;1.34;75.35
77023;BME280;65952;51.440;-2.054;2023-01-28T08:37:16;102020.75;;;1.44;74.57
77023;BME280;65952;51.440;-2.054;2023-01-28T08:39:41;102018.72;;;1.51;74.24
77023;BME280;65952;51.440;-2.054;2023-01-28T08:42:07;102021.13;;;1.57;73.94
77023;BME280;65952;51.440;-2.054;2023-01-28T08:44:32;102025.91;;;1.68;73.46
77023;BME280;65952;51.440;-2.054;2023-01-28T08:46:58;102025.78;;;1.71;73.52
77023;BME280;65952;51.440;-2.054;2023-01-28T08:49:23;102025.53;;;1.77;73.13
77023;BME280;65952;51.440;-2.054;2023-01-28T08:51:49;102036.69;;;1.84;72.69
77023;BME280;65952;51.440;-2.054;2023-01-28T08:54:14;102036.41;;;1.90;72.20
77023;BME280;65952;51.440;-2.054;2023-01-28T08:56:39;102044.22;;;1.93;72.24
77023;BME280;65952;51.440;-2.054;2023-01-28T08:59:11;102049.22;;;2.00;72.31
77023;BME280;65952;51.440;-2.054;2023-01-28T09:01:37;102037.59;;;2.04;72.21
77023;BME280;65952;51.440;-2.054;2023-01-28T09:04:02;102037.44;;;2.07;71.75
77023;BME280;65952;51.440;-2.054;2023-01-28T09:06:28;102043.47;;;2.10;71.81
77023;BME280;65952;51.440;-2.054;2023-01-28T09:08:56;102044.22;;;2.13;72.34
77023;BME280;65952;51.440;-2.054;2023-01-28T09:11:21;102045.91;;;2.15;72.04
77023;BME280;65952;51.440;-2.054;2023-01-28T09:13:47;102041.31;;;2.19;72.31
77023;BME280;65952;51.440;-2.054;2023-01-28T09:16:12;102046.47;;;2.22;72.14
77023;BME280;65952;51.440;-2.054;2023-01-28T09:18:38;102030.38;;;2.26;72.21
77023;BME280;65952;51.440;-2.054;2023-01-28T09:21:05;102031.94;;;2.31;72.14
77023;BME280;65952;51.440;-2.054;2023-01-28T09:23:36;102033.41;;;2.36;71.93
77023;BME280;65952;51.440;-2.054;2023-01-28T09:26:03;102027.91;;;2.41;71.79
77023;BME280;65952;51.440;-2.054;2023-01-28T09:28:29;102021.59;;;2.43;72.34
77023;BME280;65952;51.440;-2.054;2023-01-28T09:31:09;102024.81;;;2.50;71.84
77023;BME280;65952;51.440;-2.054;2023-01-28T09:33:37;102023.50;;;2.59;71.59
77023;BME280;65952;51.440;-2.054;2023-01-28T09:36:06;102040.00;;;2.66;71.40
77023;BME280;65952;51.440;-2.054;2023-01-28T09:38:32;102029.16;;;2.70;71.51
77023;BME280;65952;51.440;-2.054;2023-01-28T09:40:59;102013.03;;;2.75;71.56
77023;BME280;65952;51.440;-2.054;2023-01-28T09:45:56;101999.97;;;2.89;71.54
77023;BME280;65952;51.440;-2.054;2023-01-28T09:48:27;101998.69;;;2.97;71.28
77023;BME280;65952;51.440;-2.054;2023-01-28T09:50:57;102006.34;;;3.03;70.99
77023;BME280;65952;51.440;-2.054;2023-01-28T09:56:04;102003.00;;;3.17;70.85
77023;BME280;65952;51.440;-2.054;2023-01-28T09:58:30;101996.34;;;3.25;70.75
77023;BME280;65952;51.440;-2.054;2023-01-28T10:06:16;101972.31;;;3.46;69.65
77023;BME280;65952;51.440;-2.054;2023-01-28T10:11:41;101966.78;;;3.67;69.17
77023;BME280;65952;51.440;-2.054;2023-01-28T10:16:53;101968.88;;;3.94;67.77
77023;BME280;65952;51.440;-2.054;2023-01-28T10:19:25;101957.56;;;4.06;67.22
77023;BME280;65952;51.440;-2.054;2023-01-28T10:24:24;101975.16;;;4.25;66.23
77023;BME280;65952;51.440;-2.054;2023-01-28T10:26:53;101966.94;;;4.29;66.62
77023;BME280;65952;51.440;-2.054;2023-01-28T10:29:28;101963.25;;;4.32;66.38
77023;BME280;65952;51.440;-2.054;2023-01-28T10:32:00;101973.69;;;4.35;66.01
77023;BME280;65952;51.440;-2.054;2023-01-28T10:34:29;101967.09;;;4.42;65.69
77023;BME280;65952;51.440;-2.054;2023-01-28T10:36:56;101973.94;;;4.46;65.95
77023;BME280;65952;51.440;-2.054;2023-01-28T10:39:23;101970.00;;;4.53;66.10
77023;BME280;65952;51.440;-2.054;2023-01-28T10:41:50;101975.81;;;4.60;65.87
77023;BME280;65952;51.440;-2.054;2023-01-28T10:44:18;101959.59;;;4.65;65.45
77023;BME280;65952;51.440;-2.054;2023-01-28T10:46:47;101951.25;;;4.71;65.25
77023;BME280;65952;51.440;-2.054;2023-01-28T10:49:21;101948.41;;;4.74;65.27
77023;BME280;65952;51.440;-2.054;2023-01-28T10:51:49;101956.03;;;4.80;65.92
77023;BME280;65952;51.440;-2.054;2023-01-28T10:54:21;101955.69;;;4.86;65.25
77023;BME280;65952;51.440;-2.054;2023-01-28T10:57:01;101952.25;;;4.84;65.66
77023;BME280;65952;51.440;-2.054;2023-01-28T10:59:32;101952.63;;;4.78;66.83
77023;BME280;65952;51.440;-2.054;2023-01-28T11:05:00;101962.91;;;4.84;67.51
77023;BME280;65952;51.440;-2.054;2023-01-28T11:07:26;101961.69;;;4.90;67.59
77023;BME280;65952;51.440;-2.054;2023-01-28T11:09:51;101960.72;;;4.91;67.92
77023;BME280;65952;51.440;-2.054;2023-01-28T11:17:17;101969.56;;;4.92;66.26
77023;BME280;65952;51.440;-2.054;2023-01-28T11:19:43;101971.63;;;4.86;65.70
77023;BME280;65952;51.440;-2.054;2023-01-28T11:22:23;101973.63;;;4.83;65.35
77023;BME280;65952;51.440;-2.054;2023-01-28T11:24:51;101975.78;;;4.76;65.30
77023;BME280;65952;51.440;-2.054;2023-01-28T11:27:19;101981.47;;;4.70;64.71
77023;BME280;65952;51.440;-2.054;2023-01-28T11:29:47;101978.81;;;4.70;65.10
77023;BME280;65952;51.440;-2.054;2023-01-28T11:32:19;101976.13;;;4.70;65.25
77023;BME280;65952;51.440;-2.054;2023-01-28T11:34:53;101976.13;;;4.70;65.72
77023;BME280;65952;51.440;-2.054;2023-01-28T11:37:23;101989.53;;;4.68;65.92
77023;BME280;65952;51.440;-2.054;2023-01-28T11:40:00;101987.91;;;4.66;65.83
77023;BME280;65952;51.440;-2.054;2023-01-28T11:42:25;101983.72;;;4.62;65.66
77023;BME280;65952;51.440;-2.054;2023-01-28T11:44:51;101979.94;;;4.50;66.79
77023;BME280;65952;51.440;-2.054;2023-01-28T11:47:26;101983.63;;;4.47;66.99
77023;BME280;65952;51.440;-2.054;2023-01-28T11:55:10;101979.94;;;4.50;67.91
77023;BME280;65952;51.440;-2.054;2023-01-28T11:58:00;101977.03;;;4.54;67.54
77023;BME280;65952;51.440;-2.054;2023-01-28T12:12:01;101977.59;;;4.76;68.07
77023;BME280;65952;51.440;-2.054;2023-01-28T12:27:51;101980.88;;;4.95;67.69
77023;BME280;65952;51.440;-2.054;2023-01-28T12:41:40;101957.84;;;5.10;67.66
77023;BME280;65952;51.440;-2.054;2023-01-28T12:44:14;101951.75;;;5.08;67.89
77023;BME280;65952;51.440;-2.054;2023-01-28T12:47:54;101946.69;;;5.03;67.70
77023;BME280;65952;51.440;-2.054;2023-01-28T12:50:21;101946.03;;;5.00;67.70
77023;BME280;65952;51.440;-2.054;2023-01-28T12:53:03;101942.41;;;5.01;67.79
77023;BME280;65952;51.440;-2.054;2023-01-28T12:55:47;101941.75;;;4.97;67.59
77023;BME280;65952;51.440;-2.054;2023-01-28T12:58:33;101932.22;;;4.93;67.87
77023;BME280;65952;51.440;-2.054;2023-01-28T13:01:03;101923.56;;;4.90;67.75
77023;BME280;65952;51.440;-2.054;2023-01-28T13:04:09;101932.66;;;4.85;68.56
77023;BME280;65952;51.440;-2.054;2023-01-28T13:06:46;101928.38;;;4.83;68.24
77023;BME280;65952;51.440;-2.054;2023-01-28T13:09:20;101920.59;;;4.80;68.43
77023;BME280;65952;51.440;-2.054;2023-01-28T13:11:49;101920.59;;;4.80;68.20
77023;BME280;65952;51.440;-2.054;2023-01-28T13:14:15;101919.91;;;4.76;68.72
77023;BME280;65952;51.440;-2.054;2023-01-28T13:16:41;101914.78;;;4.73;68.55
77023;BME280;65952;51.440;-2.054;2023-01-28T13:19:22;101917.50;;;4.71;68.57
77023;BME280;65952;51.440;-2.054;2023-01-28T13:21:48;101915.91;;;4.69;68.29
77023;BME280;65952;51.440;-2.054;2023-01-28T13:26:44;101917.28;;;4.60;68.97
77023;BME280;65952;51.440;-2.054;2023-01-28T13:31:40;101910.78;;;4.66;68.69
77023;BME280;65952;51.440;-2.054;2023-01-28T13:34:08;101906.59;;;4.62;68.78
77023;BME280;65952;51.440;-2.054;2023-01-28T13:36:38;101897.91;;;4.58;69.06
77023;BME280;65952;51.440;-2.054;2023-01-28T13:41:41;101897.16;;;4.56;68.98
77023;BME280;65952;51.440;-2.054;2023-01-28T13:44:39;101889.06;;;4.58;68.58
77023;BME280;65952;51.440;-2.054;2023-01-28T13:49:41;101887.00;;;4.63;68.79
77023;BME280;65952;51.440;-2.054;2023-01-28T13:54:52;101880.38;;;4.70;68.17
77023;BME280;65952;51.440;-2.054;2023-01-28T14:17:51;101866.19;;;5.00;67.57
77023;BME280;65952;51.440;-2.054;2023-01-28T14:20:20;101871.28;;;5.03;67.43
77023;BME280;65952;51.440;-2.054;2023-01-28T14:22:48;101878.75;;;5.12;67.78
77023;BME280;65952;51.440;-2.054;2023-01-28T14:25:17;101880.81;;;5.21;67.26
77023;BME280;65952;51.440;-2.054;2023-01-28T14:27:49;101871.50;;;5.29;67.17
77023;BME280;65952;51.440;-2.054;2023-01-28T14:30:29;101873.03;;;5.33;66.96
77023;BME280;65952;51.440;-2.054;2023-01-28T14:32:58;101872.84;;;5.36;67.25
77023;BME280;65952;51.440;-2.054;2023-01-28T14:35:33;101875.53;;;5.36;66.94
77023;BME280;65952;51.440;-2.054;2023-01-28T14:38:06;101866.66;;;5.35;67.04
77023;BME280;65952;51.440;-2.054;2023-01-28T14:40:36;101872.75;;;5.37;66.99
77023;BME280;65952;51.440;-2.054;2023-01-28T14:43:06;101874.38;;;5.40;67.23
77023;BME280;65952;51.440;-2.054;2023-01-28T14:59:46;101893.97;;;5.25;67.75
77023;BME280;65952;51.440;-2.054;2023-01-28T15:02:22;101891.84;;;5.15;67.90
77023;BME280;65952;51.440;-2.054;2023-01-28T15:04:49;101895.75;;;5.10;68.03
77023;BME280;65952;51.440;-2.054;2023-01-28T15:07:26;101901.19;;;5.08;68.16
77023;BME280;65952;51.440;-2.054;2023-01-28T15:10:02;101905.63;;;5.08;68.15
77023;BME280;65952;51.440;-2.054;2023-01-28T15:12:29;101904.78;;;5.07;68.41
77023;BME280;65952;51.440;-2.054;2023-01-28T15:14:57;101905.84;;;5.04;68.53
77023;BME280;65952;51.440;-2.054;2023-01-28T15:17:26;101897.91;;;5.03;68.71
77023;BME280;65952;51.440;-2.054;2023-01-28T15:19:56;101898.97;;;5.00;68.75
77023;BME280;65952;51.440;-2.054;2023-01-28T15:22:27;101890.22;;;4.98;69.12
77023;BME280;65952;51.440;-2.054;2023-01-28T15:24:54;101889.28;;;4.99;69.11